createdAt,value
2019-05-14T00:02:41.378Z,10.60
2019-05-14T00:05:27.935Z,10.50
2019-05-14T00:08:13.995Z,10.50
2019-05-14T00:11:01.385Z,10.60
2019-05-14T00:13:47.998Z,10.60
2019-05-14T00:16:33.818Z,10.50
2019-05-14T00:19:21.540Z,10.50
2019-05-14T00:22:07.963Z,10.50
2019-05-14T00:24:54.348Z,10.50
2019-05-14T00:27:41.443Z,10.40
2019-05-14T00:30:28.115Z,10.40
2019-05-14T00:33:14.505Z,10.30
2019-05-14T00:36:02.087Z,10.30
2019-05-14T00:38:48.686Z,10.30
2019-05-14T00:41:35.298Z,10.20
2019-05-14T00:44:21.916Z,10.20
2019-05-14T00:47:08.261Z,10.20
2019-05-14T00:49:54.901Z,10.10
2019-05-14T00:52:44.224Z,10.00
2019-05-14T00:55:31.456Z,10.00
2019-05-14T00:58:17.618Z,9.90
2019-05-14T01:01:03.824Z,9.90
2019-05-14T01:03:51.912Z,9.80
2019-05-14T01:06:38.256Z,9.90
2019-05-14T01:09:24.554Z,9.80
2019-05-14T01:12:12.162Z,9.80
2019-05-14T01:15:09.571Z,9.80
2019-05-14T01:17:46.428Z,9.70
2019-05-14T01:20:33.158Z,9.70
2019-05-14T01:23:21.472Z,9.70
2019-05-14T01:26:07.345Z,9.70
2019-05-14T01:28:53.730Z,9.70
2019-05-14T01:31:41.791Z,9.60
2019-05-14T01:34:28.399Z,9.60
2019-05-14T01:37:14.779Z,9.60
2019-05-14T01:40:01.269Z,9.60
2019-05-14T01:42:47.593Z,9.60
2019-05-14T01:45:33.816Z,9.50
2019-05-14T01:48:21.978Z,9.40
2019-05-14T01:51:08.048Z,9.50
2019-05-14T01:53:54.579Z,9.50
2019-05-14T01:56:42.261Z,9.40
2019-05-14T01:59:28.777Z,9.40
2019-05-14T02:02:14.974Z,9.30
2019-05-14T02:05:02.153Z,9.30
2019-05-14T02:07:48.849Z,9.30
2019-05-14T02:10:35.075Z,9.30
2019-05-14T02:13:21.527Z,9.20
2019-05-14T02:16:08.184Z,9.20
2019-05-14T02:18:54.634Z,9.10
2019-05-14T02:21:42.555Z,9.10
2019-05-14T02:24:29.083Z,9.10
2019-05-14T02:27:15.416Z,9.10
2019-05-14T02:30:02.340Z,9.10
2019-05-14T02:32:49.780Z,9.10
2019-05-14T02:35:39.509Z,9.00
2019-05-14T02:38:24.188Z,8.90
2019-05-14T02:41:10.300Z,9.00
2019-05-14T02:43:59.418Z,8.90
2019-05-14T02:46:44.833Z,8.90
2019-05-14T02:49:31.490Z,8.90
2019-05-14T02:52:20.385Z,8.90
2019-05-14T02:55:09.177Z,8.80
2019-05-14T02:57:54.361Z,8.90
2019-05-14T03:00:41.027Z,8.80
2019-05-14T03:03:29.929Z,8.90
2019-05-14T03:06:15.798Z,8.80
2019-05-14T03:09:02.220Z,8.70
2019-05-14T03:11:48.682Z,8.70
2019-05-14T03:14:35.339Z,8.70
2019-05-14T03:17:21.847Z,8.70
2019-05-14T03:20:09.363Z,8.70
2019-05-14T03:23:07.586Z,8.70
2019-05-14T03:25:43.918Z,8.70
2019-05-14T03:28:30.801Z,8.70
2019-05-14T03:31:22.170Z,8.70
2019-05-14T03:34:05.118Z,8.60
2019-05-14T03:36:53.420Z,8.50
2019-05-14T03:39:40.174Z,8.50
2019-05-14T03:42:29.015Z,8.50
2019-05-14T03:45:14.739Z,8.40
2019-05-14T03:48:00.926Z,8.40
2019-05-14T03:50:49.547Z,8.40
2019-05-14T03:53:52.240Z,8.40
2019-05-14T03:56:23.410Z,8.40
2019-05-14T03:59:09.972Z,8.40
2019-05-14T04:01:59.652Z,8.40
2019-05-14T04:04:45.013Z,8.40
2019-05-14T04:07:31.805Z,8.40
2019-05-14T04:10:19.489Z,8.40
2019-05-14T04:13:09.043Z,8.40
2019-05-14T04:15:55.050Z,8.40
2019-05-14T04:18:41.569Z,8.40
2019-05-14T04:21:29.760Z,8.40
2019-05-14T04:24:20.045Z,8.40
2019-05-14T04:27:12.246Z,8.50
2019-05-14T04:29:58.947Z,8.50
2019-05-14T04:32:44.660Z,8.50
2019-05-14T04:35:31.069Z,8.40
2019-05-14T04:38:20.202Z,8.40
2019-05-14T04:41:05.462Z,8.50
2019-05-14T04:43:51.777Z,8.50
2019-05-14T04:46:39.465Z,8.60
2019-05-14T04:49:28.980Z,8.60
2019-05-14T04:52:13.673Z,8.60
2019-05-14T04:55:00.433Z,8.70
2019-05-14T04:57:49.816Z,8.70
2019-05-14T05:00:34.487Z,8.70
2019-05-14T05:03:20.992Z,8.80
2019-05-14T05:06:09.894Z,8.90
2019-05-14T05:08:55.217Z,8.90
2019-05-14T05:11:41.701Z,9.00
2019-05-14T05:14:29.668Z,9.00
2019-05-14T05:17:19.360Z,9.00
2019-05-14T05:20:05.833Z,9.00
2019-05-14T05:22:52.372Z,9.10
2019-05-14T05:25:38.910Z,9.10
2019-05-14T05:28:24.959Z,9.20
2019-05-14T05:31:11.477Z,9.30
2019-05-14T05:33:58.264Z,9.30
2019-05-14T05:36:44.425Z,9.30
2019-05-14T05:39:30.637Z,9.40
2019-05-14T05:42:18.808Z,9.40
2019-05-14T05:45:08.010Z,9.40
2019-05-14T05:47:58.213Z,9.50
2019-05-14T05:50:41.846Z,9.60
2019-05-14T05:53:28.899Z,9.60
2019-05-14T05:56:15.524Z,9.70
2019-05-14T05:59:01.715Z,9.70
2019-05-14T06:01:50.309Z,9.80
2019-05-14T06:04:36.131Z,9.80
2019-05-14T06:07:22.336Z,9.90
2019-05-14T06:10:08.928Z,10.00
2019-05-14T06:12:55.125Z,10.10
2019-05-14T06:15:47.862Z,10.10
2019-05-14T06:18:29.199Z,10.20
2019-05-14T06:21:15.561Z,10.30
2019-05-14T06:24:03.041Z,10.40
2019-05-14T06:26:49.531Z,10.40
2019-05-14T06:29:38.102Z,10.50
2019-05-14T06:32:23.535Z,10.60
2019-05-14T06:35:09.352Z,10.70
2019-05-14T06:37:57.867Z,10.90
2019-05-14T06:40:44.148Z,11.00
2019-05-14T06:43:30.499Z,11.00
2019-05-14T06:46:19.425Z,11.10
2019-05-14T06:49:05.150Z,11.20
2019-05-14T06:51:51.306Z,11.40
2019-05-14T06:54:38.674Z,11.50
2019-05-14T06:57:24.952Z,11.60
2019-05-14T07:00:11.649Z,11.70
2019-05-14T07:02:58.310Z,11.80
2019-05-14T07:05:44.655Z,12.10
2019-05-14T07:08:30.477Z,12.20
2019-05-14T07:11:18.893Z,12.30
2019-05-14T07:14:07.975Z,12.40
2019-05-14T07:16:52.533Z,12.40
2019-05-14T07:19:38.759Z,12.60
2019-05-14T07:22:25.099Z,12.80
2019-05-14T07:25:11.119Z,12.90
2019-05-14T07:27:58.281Z,13.10
2019-05-14T07:30:44.766Z,13.30
2019-05-14T07:33:31.269Z,13.50
2019-05-14T07:36:18.894Z,13.60
2019-05-14T07:39:09.037Z,13.80
2019-05-14T07:41:54.126Z,14.10
2019-05-14T07:44:39.986Z,14.40
2019-05-14T07:47:26.468Z,14.90
2019-05-14T07:50:13.223Z,15.20
2019-05-14T07:53:02.929Z,15.40
2019-05-14T07:55:49.306Z,15.70
2019-05-14T07:58:35.367Z,16.00
2019-05-14T08:01:21.842Z,16.20
2019-05-14T08:04:11.934Z,16.40
2019-05-14T08:06:58.731Z,16.60
2019-05-14T08:09:47.796Z,16.70
2019-05-14T08:12:33.944Z,16.80
2019-05-14T08:15:22.526Z,17.00
2019-05-14T08:18:08.763Z,17.10
2019-05-14T08:20:55.152Z,17.10
2019-05-14T08:23:41.237Z,17.10
2019-05-14T08:26:29.343Z,17.30
2019-05-14T08:29:17.986Z,17.70
2019-05-14T08:32:03.924Z,17.80
2019-05-14T08:34:50.500Z,17.90
2019-05-14T08:37:38.601Z,18.30
2019-05-14T08:40:24.295Z,18.20
2019-05-14T08:43:10.829Z,18.40
2019-05-14T08:45:58.705Z,18.50
2019-05-14T08:48:45.031Z,18.50
2019-05-14T08:51:31.145Z,18.40
2019-05-14T08:54:18.849Z,18.50
2019-05-14T08:57:05.181Z,18.60
2019-05-14T08:59:51.736Z,18.80
2019-05-14T09:02:39.276Z,18.80
2019-05-14T09:05:26.169Z,18.80
2019-05-14T09:08:13.283Z,19.10
2019-05-14T09:10:59.874Z,19.40
2019-05-14T09:13:48.853Z,19.40
2019-05-14T09:16:43.196Z,19.50
2019-05-14T09:19:22.228Z,19.50
2019-05-14T09:22:09.617Z,20.00
2019-05-14T09:24:56.174Z,20.50
2019-05-14T09:27:42.487Z,20.30
2019-05-14T09:30:29.207Z,20.60
2019-05-14T09:33:15.414Z,20.30
2019-05-14T09:36:14.688Z,20.80
2019-05-14T09:38:49.779Z,20.80
2019-05-14T09:41:36.112Z,20.50
2019-05-14T09:44:22.404Z,20.80
2019-05-14T09:47:08.768Z,20.10
2019-05-14T09:49:55.241Z,20.50
2019-05-14T09:52:41.574Z,20.60
2019-05-14T09:55:28.281Z,20.70
2019-05-14T09:58:14.661Z,20.30
2019-05-14T10:01:00.844Z,20.40
2019-05-14T10:03:49.556Z,21.10
2019-05-14T10:06:35.800Z,21.30
2019-05-14T10:09:22.250Z,21.30
2019-05-14T10:12:09.049Z,21.40
2019-05-14T10:14:55.843Z,21.40
2019-05-14T10:17:42.640Z,20.90
2019-05-14T10:20:40.374Z,20.80
2019-05-14T10:23:18.698Z,20.90
2019-05-14T10:26:04.295Z,20.90
2019-05-14T10:28:50.909Z,20.60
2019-05-14T10:31:39.579Z,20.50
2019-05-14T10:34:24.878Z,20.90
2019-05-14T10:37:11.474Z,21.00
2019-05-14T10:39:58.628Z,20.90
2019-05-14T10:42:45.276Z,20.50
2019-05-14T10:45:31.922Z,20.00
2019-05-14T10:48:18.674Z,19.50
2019-05-14T10:51:05.308Z,19.80
2019-05-14T10:53:51.759Z,19.90
2019-05-14T10:56:38.302Z,20.10
2019-05-14T10:59:24.813Z,20.50
2019-05-14T11:02:12.167Z,20.50
2019-05-14T11:04:58.757Z,19.60
2019-05-14T11:07:44.989Z,20.10
2019-05-14T11:10:31.518Z,20.80
2019-05-14T11:13:18.991Z,21.30
2019-05-14T11:16:08.399Z,21.40
2019-05-14T11:18:57.140Z,20.00
2019-05-14T11:21:41.669Z,19.10
2019-05-14T11:24:29.528Z,19.40
2019-05-14T11:27:18.477Z,19.40
2019-05-14T11:30:05.429Z,19.00
2019-05-14T11:34:10.942Z,18.80
2019-05-14T11:36:58.942Z,18.80
2019-05-14T11:39:48.549Z,18.80
2019-05-14T11:42:35.560Z,19.00
2019-05-14T11:45:23.092Z,18.60
2019-05-14T11:48:10.274Z,18.50
2019-05-14T11:50:59.497Z,18.40
2019-05-14T11:53:49.234Z,18.70
2019-05-14T11:56:35.677Z,19.30
2019-05-14T11:59:23.019Z,19.50
2019-05-14T12:02:10.205Z,20.30
2019-05-14T12:04:57.949Z,20.10
2019-05-14T12:07:45.086Z,19.70
2019-05-14T12:10:32.273Z,19.40
2019-05-14T12:13:19.502Z,19.30
2019-05-14T12:16:08.575Z,19.60
2019-05-14T12:18:55.353Z,20.40
2019-05-14T12:21:59.009Z,21.00
2019-05-14T12:24:31.283Z,21.90
2019-05-14T12:27:19.181Z,22.20
2019-05-14T12:30:10.407Z,22.30
2019-05-14T12:32:58.977Z,22.10
2019-05-14T12:35:49.430Z,21.10
2019-05-14T12:38:35.566Z,21.60
2019-05-14T12:41:22.327Z,21.90
2019-05-14T12:44:09.513Z,21.40
2019-05-14T12:46:58.736Z,21.90
2019-05-14T12:49:48.193Z,21.80
2019-05-14T12:52:34.944Z,22.30
2019-05-14T12:55:22.208Z,21.60
2019-05-14T12:58:09.662Z,20.70
2019-05-14T13:00:59.307Z,20.70
2019-05-14T13:03:45.530Z,21.20
2019-05-14T13:06:32.754Z,21.30
2019-05-14T13:09:21.726Z,21.30
2019-05-14T13:12:11.329Z,21.90
2019-05-14T13:14:57.896Z,21.20
2019-05-14T13:17:45.429Z,21.30
2019-05-14T13:20:32.593Z,20.90
2019-05-14T13:23:20.068Z,19.70
2019-05-14T13:26:10.631Z,19.40
2019-05-14T13:28:58.648Z,20.90
2019-05-14T13:31:45.272Z,22.30
2019-05-14T13:34:32.716Z,23.50
2019-05-14T13:37:20.026Z,23.60
2019-05-14T13:40:09.252Z,24.10
2019-05-14T13:42:56.236Z,23.30
2019-05-14T13:45:43.573Z,22.40
2019-05-14T13:48:30.763Z,22.10
2019-05-14T13:51:19.540Z,23.30
2019-05-14T13:54:08.554Z,24.20
2019-05-14T13:56:58.480Z,25.00
2019-05-14T13:59:45.091Z,25.70
2019-05-14T14:02:32.342Z,23.60
2019-05-14T14:05:20.299Z,22.30
2019-05-14T14:08:08.831Z,24.00
2019-05-14T14:11:02.169Z,25.30
2019-05-14T14:13:44.613Z,24.30
2019-05-14T14:16:31.740Z,23.50
2019-05-14T14:19:18.997Z,25.20
2019-05-14T14:22:05.686Z,26.20
2019-05-14T14:24:52.367Z,25.90
2019-05-14T14:27:41.031Z,25.40
2019-05-14T14:30:28.599Z,26.30
2019-05-14T14:33:18.324Z,26.50
2019-05-14T14:36:04.708Z,26.40
2019-05-14T14:38:51.741Z,27.90
2019-05-14T14:41:38.674Z,28.60
2019-05-14T14:44:25.820Z,26.80
2019-05-14T14:47:12.834Z,25.00
2019-05-14T14:50:00.337Z,23.60
2019-05-14T14:52:49.484Z,23.10
2019-05-14T14:55:39.713Z,22.50
2019-05-14T14:58:24.611Z,25.10
2019-05-14T15:01:11.233Z,26.70
2019-05-14T15:03:59.968Z,27.30
2019-05-14T15:06:50.454Z,26.00
2019-05-14T15:09:35.429Z,24.70
2019-05-14T15:12:22.276Z,24.30
2019-05-14T15:15:09.414Z,22.90
2019-05-14T15:17:56.215Z,22.50
2019-05-14T15:20:42.924Z,24.50
2019-05-14T15:23:30.074Z,26.90
2019-05-14T15:26:19.391Z,28.50
2019-05-14T15:29:05.628Z,29.30
2019-05-14T15:31:52.504Z,30.30
2019-05-14T15:34:39.680Z,27.40
2019-05-14T15:37:28.612Z,25.30
2019-05-14T15:40:22.097Z,23.40
2019-05-14T15:43:04.721Z,24.40
2019-05-14T15:45:51.678Z,26.90
2019-05-14T15:48:39.682Z,26.40
2019-05-14T15:51:28.591Z,26.00
2019-05-14T15:54:35.098Z,24.50
2019-05-14T15:57:04.360Z,23.40
2019-05-14T15:59:51.964Z,22.30
2019-05-14T16:02:39.976Z,21.60
2019-05-14T16:05:28.502Z,21.00
2019-05-14T16:08:22.187Z,20.60
2019-05-14T16:11:05.973Z,20.10
2019-05-14T16:13:53.638Z,19.70
2019-05-14T16:16:41.106Z,19.80
2019-05-14T16:22:03.593Z,19.50
2019-05-14T16:24:56.758Z,24.10
2019-05-14T16:27:40.057Z,26.00
2019-05-14T16:30:28.883Z,26.90
2019-05-14T16:33:18.516Z,27.20
2019-05-14T16:36:05.524Z,27.40
2019-05-14T16:38:52.965Z,28.30
2019-05-14T16:41:40.027Z,29.30
2019-05-14T16:44:28.327Z,29.60
2019-05-14T16:47:18.710Z,30.10
2019-05-14T16:50:09.719Z,27.80
2019-05-14T16:52:58.892Z,25.20
2019-05-14T16:55:45.693Z,23.50
2019-05-14T16:58:33.152Z,22.00
2019-05-14T17:01:20.440Z,20.90
2019-05-14T17:04:09.418Z,20.10
2019-05-14T17:06:58.915Z,19.50
2019-05-14T17:09:45.120Z,18.90
2019-05-14T17:12:48.498Z,18.40
2019-05-14T17:15:21.561Z,17.90
2019-05-14T17:18:09.042Z,17.80
2019-05-14T17:20:59.255Z,17.70
2019-05-14T17:23:45.467Z,17.40
2019-05-14T17:26:32.739Z,17.30
2019-05-14T17:29:19.872Z,17.30
2019-05-14T17:32:07.121Z,17.10
2019-05-14T17:34:54.777Z,17.00
2019-05-14T17:37:41.912Z,16.90
2019-05-14T17:40:29.115Z,16.80
2019-05-14T17:43:16.301Z,16.70
2019-05-14T17:46:03.702Z,16.50
2019-05-14T17:48:50.754Z,16.40
2019-05-14T17:51:39.038Z,16.30
2019-05-14T17:54:28.431Z,16.20
2019-05-14T17:57:15.157Z,16.10
2019-05-14T18:00:01.265Z,15.90
2019-05-14T18:02:48.699Z,15.80
2019-05-14T18:05:36.221Z,15.60
2019-05-14T18:08:23.454Z,15.50
2019-05-14T18:11:10.915Z,15.30
2019-05-14T18:13:59.162Z,15.20
2019-05-14T18:16:46.636Z,15.00
2019-05-14T18:19:34.092Z,14.90
2019-05-14T18:22:21.231Z,14.90
2019-05-14T18:25:08.694Z,14.80
2019-05-14T18:27:55.817Z,14.60
2019-05-14T18:30:43.224Z,14.60
2019-05-14T18:33:31.365Z,14.50
2019-05-14T18:36:19.173Z,14.50
2019-05-14T18:39:09.086Z,14.50
2019-05-14T18:41:55.515Z,14.40
2019-05-14T18:44:42.719Z,14.40
2019-05-14T18:47:30.360Z,14.30
2019-05-14T18:50:19.552Z,14.10
2019-05-14T18:53:08.676Z,14.10
2019-05-14T18:55:55.704Z,14.00
2019-05-14T18:58:41.800Z,13.90
2019-05-14T19:01:29.227Z,13.80
2019-05-14T19:04:18.421Z,13.60
2019-05-14T19:07:05.005Z,13.60
2019-05-14T19:09:51.088Z,13.50
2019-05-14T19:12:38.788Z,13.40
2019-05-14T19:15:26.066Z,13.40
2019-05-14T19:18:13.137Z,13.30
2019-05-14T19:20:59.798Z,13.30
2019-05-14T19:23:48.963Z,13.20
2019-05-14T19:26:37.755Z,13.20
2019-05-14T19:29:24.464Z,13.10
2019-05-14T19:32:10.532Z,13.00
2019-05-14T19:34:57.896Z,12.90
2019-05-14T19:37:44.951Z,12.70
2019-05-14T19:40:31.007Z,12.60
2019-05-14T19:43:19.106Z,12.50
2019-05-14T19:46:08.588Z,12.40
2019-05-14T19:48:54.937Z,12.30
2019-05-14T19:51:42.153Z,12.20
2019-05-14T19:54:29.519Z,12.10
2019-05-14T19:57:18.519Z,12.00
2019-05-14T20:00:09.134Z,11.90
2019-05-14T20:02:58.211Z,11.80
2019-05-14T20:05:45.951Z,11.60
2019-05-14T20:08:33.175Z,11.40
2019-05-14T20:11:19.463Z,11.20
2019-05-14T20:14:06.390Z,11.20
2019-05-14T20:16:53.650Z,11.00
2019-05-14T20:19:39.813Z,11.00
2019-05-14T20:22:28.380Z,10.80
2019-05-14T20:25:15.214Z,10.50
2019-05-14T20:28:01.880Z,10.20
2019-05-14T20:30:49.380Z,10.10
2019-05-14T20:33:36.919Z,9.90
2019-05-14T20:36:23.938Z,9.70
2019-05-14T20:39:11.035Z,9.70
2019-05-14T20:41:58.484Z,9.50
2019-05-14T20:44:45.192Z,9.40
2019-05-14T20:47:32.330Z,9.30
2019-05-14T20:50:19.511Z,9.30
2019-05-14T20:53:08.469Z,9.20
2019-05-14T20:55:55.514Z,9.10
2019-05-14T20:58:42.621Z,9.10
2019-05-14T21:01:29.803Z,9.00
2019-05-14T21:04:18.943Z,8.90
2019-05-14T21:07:05.621Z,8.70
2019-05-14T21:09:52.564Z,8.70
2019-05-14T21:12:39.952Z,8.60
2019-05-14T21:15:28.652Z,8.50
2019-05-14T21:18:18.762Z,8.50
2019-05-14T21:21:04.933Z,8.40
2019-05-14T21:23:52.137Z,8.30
2019-05-14T21:26:40.069Z,8.20
2019-05-14T21:29:30.334Z,8.10
2019-05-14T21:32:16.220Z,8.00
2019-05-14T21:35:04.144Z,7.90
2019-05-14T21:37:51.402Z,7.80
2019-05-14T21:40:39.118Z,7.80
2019-05-14T21:43:28.951Z,7.80
2019-05-14T21:46:15.100Z,7.80
2019-05-14T21:49:01.219Z,7.70
2019-05-14T21:51:51.319Z,7.60
2019-05-14T21:54:39.545Z,7.60
2019-05-14T21:57:28.272Z,7.60
2019-05-14T22:00:31.764Z,7.60
2019-05-14T22:03:20.869Z,7.50
2019-05-14T22:06:08.863Z,7.40
2019-05-14T22:08:56.180Z,7.40
2019-05-14T22:11:43.917Z,7.30
2019-05-14T22:14:31.238Z,7.40
2019-05-14T22:17:18.344Z,7.30
2019-05-14T22:20:08.239Z,7.40
2019-05-14T22:22:55.836Z,7.30
2019-05-14T22:25:43.200Z,7.30
2019-05-14T22:28:30.316Z,7.30
2019-05-14T22:31:19.257Z,7.30
2019-05-14T22:34:08.946Z,7.30
2019-05-14T22:36:57.937Z,7.20
2019-05-14T22:39:44.273Z,7.20
2019-05-14T22:42:30.323Z,7.20
2019-05-14T22:45:18.562Z,7.30
2019-05-14T22:48:05.756Z,7.20
2019-05-14T22:50:53.072Z,7.20
2019-05-14T22:53:40.251Z,7.20
2019-05-14T22:56:28.064Z,7.20
2019-05-14T22:59:14.249Z,7.20
2019-05-14T23:02:01.145Z,7.20
2019-05-14T23:04:49.235Z,7.10
2019-05-14T23:07:38.389Z,7.10
2019-05-14T23:10:24.940Z,7.00
2019-05-14T23:13:12.148Z,6.90
2019-05-14T23:15:58.853Z,6.90
2019-05-14T23:18:45.828Z,6.90
2019-05-14T23:21:33.345Z,6.90
2019-05-14T23:24:20.791Z,6.90
2019-05-14T23:27:08.323Z,6.90
2019-05-14T23:29:55.343Z,6.90
2019-05-14T23:32:42.700Z,6.90
2019-05-14T23:35:30.517Z,6.90
2019-05-14T23:38:19.068Z,6.90
2019-05-14T23:41:08.456Z,7.00
2019-05-14T23:43:55.006Z,6.90
2019-05-14T23:46:42.117Z,6.90
2019-05-14T23:49:29.627Z,6.90
2019-05-14T23:52:19.180Z,6.90
2019-05-14T23:55:08.610Z,7.00
2019-05-14T23:57:55.920Z,7.00
